Time;durP1;ratioP1;P1;durP2;ratioP2;P2;SDS_P1;SDS_P2;PMS_P1;PMS_P2;Temp;Humidity;BMP_temperature;BMP_pressure;BME280_temperature;BME280_humidity;BME280_pressure;Samples;Min_cycle;Max_cycle;Signal;HPM_P1;HPM_P2
2023/08/24 00:01:21;;;;;;;4.90;3.13;;;18.50;99.90;;;;;;5021672;28;20198;-64
2023/08/24 00:03:47;;;;;;;5.20;3.10;;;18.40;99.90;;;;;;5028614;28;20535;-64
2023/08/24 00:06:13;;;;;;;5.07;2.60;;;18.40;99.90;;;;;;5030119;28;20190;-64
2023/08/24 00:08:39;;;;;;;5.53;3.10;;;18.40;99.90;;;;;;5015373;28;20512;-64
2023/08/24 00:11:05;;;;;;;4.30;3.17;;;18.40;99.90;;;;;;5021815;28;20190;-64
2023/08/24 00:13:31;;;;;;;4.73;3.33;;;18.40;99.90;;;;;;5032670;28;20174;-64
2023/08/24 00:15:57;;;;;;;6.40;3.33;;;18.40;99.90;;;;;;5021344;28;20419;-64
2023/08/24 00:18:24;;;;;;;5.30;3.60;;;18.40;99.90;;;;;;5028200;28;20992;-64
2023/08/24 00:20:49;;;;;;;9.67;3.60;;;18.30;99.90;;;;;;5023644;28;20187;-64
2023/08/24 00:23:16;;;;;;;5.60;3.63;;;18.30;99.90;;;;;;5015044;28;20422;-64
2023/08/24 00:25:41;;;;;;;4.30;3.50;;;18.30;99.90;;;;;;5023494;28;20183;-64
2023/08/24 00:28:07;;;;;;;6.83;4.10;;;18.20;99.90;;;;;;5015140;28;20430;-64
2023/08/24 00:30:33;;;;;;;5.90;3.40;;;18.20;99.90;;;;;;5025725;28;20709;-64
2023/08/24 00:32:59;;;;;;;7.03;3.80;;;18.10;99.90;;;;;;5029771;28;20240;-64
2023/08/24 00:35:25;;;;;;;5.03;3.40;;;18.10;99.90;;;;;;5012492;28;20422;-64
2023/08/24 00:37:50;;;;;;;7.23;3.60;;;18.00;99.90;;;;;;5028002;28;20183;-64
2023/08/24 00:40:16;;;;;;;4.53;3.20;;;18.10;99.90;;;;;;5022147;28;20191;-64
2023/08/24 00:42:44;;;;;;;12.40;3.73;;;18.00;99.90;;;;;;5029205;28;20285;-64
2023/08/24 00:45:11;;;;;;;6.57;3.93;;;18.00;99.90;;;;;;5022026;28;20188;-64
2023/08/24 00:47:44;;;;;;;9.37;3.73;;;17.90;99.90;;;;;;5030724;28;20417;-64
2023/08/24 00:50:10;;;;;;;5.80;3.37;;;17.90;99.90;;;;;;5032212;28;20995;-64
2023/08/24 00:52:39;;;;;;;7.77;3.60;;;17.90;99.90;;;;;;5013249;28;20802;-64
2023/08/24 00:55:06;;;;;;;6.83;4.03;;;17.90;99.90;;;;;;5023115;28;20765;-64
2023/08/24 00:57:32;;;;;;;8.43;3.47;;;17.90;99.90;;;;;;5031549;28;20630;-64
2023/08/24 01:00:01;;;;;;;4.97;3.30;;;17.90;99.90;;;;;;5032033;28;20805;-64
2023/08/24 01:02:27;;;;;;;7.00;4.67;;;17.90;99.90;;;;;;5030718;28;20475;-64
2023/08/24 01:04:53;;;;;;;5.40;3.30;;;17.90;99.90;;;;;;5031683;28;20937;-64
2023/08/24 01:07:20;;;;;;;8.83;3.63;;;17.90;99.90;;;;;;5020524;28;20198;-64
2023/08/24 01:09:47;;;;;;;6.67;4.53;;;18.00;99.90;;;;;;5014388;28;20465;-64
2023/08/24 01:12:38;;;;;;;6.70;3.43;;;18.00;99.90;;;;;;5028739;28;20456;-64
2023/08/24 01:15:15;;;;;;;5.23;3.43;;;18.00;99.90;;;;;;5030475;28;20432;-64
2023/08/24 01:17:43;;;;;;;14.27;4.50;;;18.00;99.90;;;;;;4993579;28;20434;-64
2023/08/24 01:20:10;;;;;;;8.20;4.00;;;18.00;99.90;;;;;;5028240;28;20467;-64
2023/08/24 01:22:57;;;;;;;8.77;4.07;;;18.00;99.90;;;;;;5012579;28;20437;-64
2023/08/24 01:25:37;;;;;;;7.70;3.70;;;18.00;99.90;;;;;;5013811;28;20426;-64
2023/08/24 01:28:05;;;;;;;5.70;3.37;;;17.90;99.90;;;;;;5011690;28;20426;-64
2023/08/24 01:30:32;;;;;;;9.20;3.30;;;17.90;99.90;;;;;;5019893;28;20468;-64
2023/08/24 01:32:58;;;;;;;7.13;4.00;;;17.90;99.90;;;;;;5031298;28;20761;-64
2023/08/24 01:35:23;;;;;;;5.53;3.60;;;17.80;99.90;;;;;;5015215;28;20434;-64
2023/08/24 01:37:49;;;;;;;8.80;3.70;;;17.80;99.90;;;;;;5026008;28;20187;-64
2023/08/24 01:40:26;;;;;;;4.10;3.10;;;17.80;99.90;;;;;;5021892;28;20248;-64
2023/08/24 01:42:51;;;;;;;7.30;3.53;;;17.80;99.90;;;;;;5018152;28;20212;-64
2023/08/24 01:45:18;;;;;;;4.87;3.30;;;17.80;99.90;;;;;;5031011;28;20432;-64
2023/08/24 01:47:47;;;;;;;9.00;3.90;;;17.80;99.90;;;;;;5016765;28;20688;-64
2023/08/24 01:50:13;;;;;;;7.80;4.07;;;17.80;99.90;;;;;;5031681;28;20468;-64
2023/08/24 01:52:40;;;;;;;8.10;4.17;;;17.70;99.90;;;;;;5025773;28;20422;-64
2023/08/24 01:55:06;;;;;;;6.43;3.50;;;17.70;99.90;;;;;;5021112;28;20467;-64
2023/08/24 01:57:32;;;;;;;11.00;4.37;;;17.80;99.90;;;;;;5017968;28;20425;-64
2023/08/24 01:59:57;;;;;;;9.33;3.87;;;17.80;99.90;;;;;;5031430;28;20444;-64
2023/08/24 02:02:24;;;;;;;6.00;3.70;;;17.70;99.90;;;;;;5014055;28;20648;-64
2023/08/24 02:04:50;;;;;;;5.90;3.53;;;17.70;99.90;;;;;;5021375;28;20615;-64
2023/08/24 02:07:16;;;;;;;4.20;3.30;;;17.60;99.90;;;;;;5020333;28;20458;-64
2023/08/24 02:09:41;;;;;;;6.03;3.27;;;17.60;99.90;;;;;;5013704;28;20210;-64
2023/08/24 02:12:07;;;;;;;7.03;3.90;;;17.50;99.90;;;;;;5028253;28;20193;-64
2023/08/24 02:14:33;;;;;;;7.67;4.10;;;17.50;99.90;;;;;;5030635;28;20186;-64
2023/08/24 02:16:58;;;;;;;7.13;4.60;;;17.40;99.90;;;;;;5031012;28;20214;-64
2023/08/24 02:19:24;;;;;;;6.60;3.50;;;17.40;99.90;;;;;;5030860;28;20718;-64
2023/08/24 02:21:49;;;;;;;6.73;3.90;;;17.40;99.90;;;;;;5022592;28;20669;-64
2023/08/24 02:24:15;;;;;;;6.00;3.60;;;17.50;99.90;;;;;;5030370;28;20190;-64
2023/08/24 02:26:41;;;;;;;6.30;4.00;;;17.50;99.90;;;;;;5016299;28;20190;-64
2023/08/24 02:29:06;;;;;;;8.00;4.10;;;17.50;99.90;;;;;;5010482;28;20202;-64
2023/08/24 02:31:32;;;;;;;10.40;4.60;;;17.50;99.90;;;;;;5014494;28;20186;-64
2023/08/24 02:33:57;;;;;;;4.20;2.90;;;17.50;99.90;;;;;;5025506;28;20210;-64
2023/08/24 02:36:23;;;;;;;9.00;4.10;;;17.50;99.90;;;;;;5027973;28;20187;-64
2023/08/24 02:38:49;;;;;;;9.10;4.20;;;17.50;99.90;;;;;;5024801;28;20554;-64
2023/08/24 02:41:14;;;;;;;17.67;3.97;;;17.50;99.90;;;;;;5023534;28;20187;-64
2023/08/24 02:43:40;;;;;;;5.67;3.50;;;17.60;99.90;;;;;;5020956;28;20194;-64
2023/08/24 02:46:08;;;;;;;7.13;3.27;;;17.60;99.90;;;;;;5029967;28;20194;-64
2023/08/24 02:48:34;;;;;;;11.10;4.80;;;17.60;99.90;;;;;;5029847;28;20643;-64
2023/08/24 02:51:02;;;;;;;9.80;3.90;;;17.60;99.90;;;;;;5015269;28;20434;-64
2023/08/24 02:53:29;;;;;;;7.80;3.60;;;17.60;99.90;;;;;;5008340;28;20934;-64
2023/08/24 02:55:55;;;;;;;7.17;3.50;;;17.60;99.90;;;;;;5007362;28;20873;-64
2023/08/24 02:58:21;;;;;;;7.37;4.50;;;17.60;99.90;;;;;;5010641;28;20464;-64
2023/08/24 03:00:47;;;;;;;8.43;3.57;;;17.60;99.90;;;;;;5009911;28;20433;-64
2023/08/24 03:03:16;;;;;;;9.60;4.57;;;17.70;99.90;;;;;;5010329;28;20969;-64
2023/08/24 03:05:57;;;;;;;7.47;3.73;;;17.70;99.90;;;;;;5006259;28;20574;-64
2023/08/24 03:08:23;;;;;;;5.50;3.33;;;17.60;99.90;;;;;;5005438;28;20433;-64
2023/08/24 03:10:49;;;;;;;8.77;3.70;;;17.60;99.90;;;;;;5010023;28;20437;-64
2023/08/24 03:13:15;;;;;;;5.93;4.40;;;17.50;99.90;;;;;;5010118;28;20815;-64
2023/08/24 03:15:40;;;;;;;13.60;4.27;;;17.50;99.90;;;;;;5009337;28;20662;-64
2023/08/24 03:18:06;;;;;;;7.47;4.50;;;17.50;99.90;;;;;;5010836;28;20195;-64
2023/08/24 03:20:32;;;;;;;5.50;3.73;;;17.40;99.90;;;;;;5010204;28;20229;-64
2023/08/24 03:22:57;;;;;;;5.33;3.63;;;17.30;99.90;;;;;;5010422;28;20237;-64
2023/08/24 03:25:23;;;;;;;8.00;4.20;;;17.40;99.90;;;;;;5009661;28;20218;-64
2023/08/24 03:27:50;;;;;;;10.87;4.63;;;17.30;99.90;;;;;;5010408;28;20241;-64
2023/08/24 03:30:16;;;;;;;8.87;4.00;;;17.30;99.90;;;;;;5003550;28;20245;-64
2023/08/24 03:32:41;;;;;;;8.53;3.90;;;17.30;99.90;;;;;;5010260;28;20433;-64
2023/08/24 03:35:07;;;;;;;7.80;4.13;;;17.30;99.90;;;;;;5004431;28;20187;-64
2023/08/24 03:37:33;;;;;;;7.37;4.40;;;17.40;99.90;;;;;;5014148;28;20655;-64
2023/08/24 03:39:59;;;;;;;6.90;4.13;;;17.40;99.90;;;;;;5014635;28;20421;-64
2023/08/24 03:42:24;;;;;;;9.67;5.23;;;17.40;99.90;;;;;;5010335;28;20197;-64
2023/08/24 03:44:50;;;;;;;6.40;4.00;;;17.40;99.90;;;;;;5013454;28;20300;-64
2023/08/24 03:47:16;;;;;;;5.40;4.00;;;17.40;99.90;;;;;;5021331;28;20245;-64
2023/08/24 03:49:43;;;;;;;6.30;4.60;;;17.40;99.90;;;;;;5013397;28;20241;-64
2023/08/24 03:52:08;;;;;;;8.20;4.67;;;17.50;99.90;;;;;;5033246;28;20183;-64
2023/08/24 03:54:34;;;;;;;9.87;5.00;;;17.50;99.90;;;;;;5015695;28;20433;-64
2023/08/24 03:57:01;;;;;;;6.80;4.40;;;17.50;99.90;;;;;;5012830;28;20658;-64
2023/08/24 03:59:26;;;;;;;9.40;5.10;;;17.60;99.90;;;;;;5019668;28;20221;-64
2023/08/24 04:01:52;;;;;;;8.87;4.90;;;17.60;99.90;;;;;;5011823;28;20946;-64
2023/08/24 04:04:18;;;;;;;5.80;3.97;;;17.60;99.90;;;;;;5011200;28;20182;-64
2023/08/24 04:06:43;;;;;;;11.40;4.37;;;17.60;99.90;;;;;;5009838;28;20530;-64
2023/08/24 04:09:09;;;;;;;10.30;4.70;;;17.60;99.90;;;;;;5015659;28;20269;-64
2023/08/24 04:11:35;;;;;;;7.83;5.00;;;17.70;99.90;;;;;;5009603;28;20266;-64
2023/08/24 04:14:01;;;;;;;7.80;5.27;;;17.70;99.90;;;;;;5016624;28;20217;-64
2023/08/24 04:16:26;;;;;;;8.17;5.00;;;17.70;99.90;;;;;;5025360;28;20193;-64
2023/08/24 04:18:52;;;;;;;12.07;5.10;;;17.80;99.90;;;;;;5028114;28;20195;-64
2023/08/24 04:21:17;;;;;;;7.87;4.60;;;17.80;99.90;;;;;;5025969;28;20244;-64
2023/08/24 04:23:44;;;;;;;14.03;5.07;;;17.80;99.90;;;;;;5032553;28;20261;-64
2023/08/24 04:26:13;;;;;;;9.50;4.93;;;17.70;99.90;;;;;;5022469;28;20206;-64
2023/08/24 04:28:39;;;;;;;8.60;4.87;;;17.70;99.90;;;;;;5009346;28;20706;-64
2023/08/24 04:31:05;;;;;;;6.90;4.40;;;17.70;99.90;;;;;;5025687;28;20429;-64
2023/08/24 04:33:31;;;;;;;7.47;5.37;;;17.80;99.90;;;;;;5025853;28;20187;-64
2023/08/24 04:35:58;;;;;;;7.10;4.23;;;17.80;99.90;;;;;;5025961;28;20483;-64
2023/08/24 04:38:23;;;;;;;10.93;4.90;;;17.80;99.90;;;;;;5006434;28;20193;-64
2023/08/24 04:40:54;;;;;;;7.10;3.60;;;17.80;99.90;;;;;;5032100;28;20429;-64
2023/08/24 04:43:22;;;;;;;9.37;5.30;;;17.80;99.90;;;;;;5032042;28;20182;-64
2023/08/24 04:45:49;;;;;;;8.63;4.70;;;17.80;99.90;;;;;;5031033;28;20417;-64
2023/08/24 04:48:15;;;;;;;10.33;4.50;;;17.80;99.90;;;;;;5019113;28;20432;-64
2023/08/24 04:50:44;;;;;;;7.83;4.33;;;17.90;99.90;;;;;;5026742;28;20469;-64
2023/08/24 04:53:10;;;;;;;7.07;4.00;;;17.90;99.90;;;;;;5031887;28;20186;-64
2023/08/24 04:55:36;;;;;;;8.80;4.13;;;18.00;99.90;;;;;;5016875;28;20418;-64
2023/08/24 04:58:01;;;;;;;8.87;4.80;;;18.10;99.90;;;;;;5020507;28;20420;-64
2023/08/24 05:00:27;;;;;;;5.23;4.20;;;18.10;99.90;;;;;;5031697;28;20655;-64
2023/08/24 05:02:53;;;;;;;23.47;4.73;;;18.10;99.90;;;;;;5023892;28;20191;-64
2023/08/24 05:05:19;;;;;;;7.20;4.33;;;18.20;99.90;;;;;;5026218;28;20194;-64
2023/08/24 05:07:44;;;;;;;6.07;3.67;;;18.30;99.90;;;;;;5017113;28;20182;-64
2023/08/24 05:10:10;;;;;;;8.80;5.30;;;18.30;99.90;;;;;;5015936;28;20461;-64
2023/08/24 05:12:36;;;;;;;8.27;4.97;;;18.30;99.90;;;;;;5031607;28;20693;-64
2023/08/24 05:15:02;;;;;;;8.20;4.93;;;18.40;99.90;;;;;;5018397;28;20206;-64
2023/08/24 05:17:28;;;;;;;9.37;4.83;;;18.40;99.90;;;;;;5031648;28;20193;-64
2023/08/24 05:19:54;;;;;;;8.27;4.80;;;18.50;99.90;;;;;;5019869;28;20430;-64
2023/08/24 05:22:20;;;;;;;8.97;5.73;;;18.50;99.90;;;;;;5023422;28;20191;-64
2023/08/24 05:24:46;;;;;;;8.80;5.00;;;18.60;99.90;;;;;;5026000;28;20194;-64
2023/08/24 05:27:12;;;;;;;10.93;5.17;;;18.70;99.90;;;;;;5013187;28;20187;-64
2023/08/24 05:29:38;;;;;;;6.23;3.90;;;18.70;99.90;;;;;;5018759;28;20523;-64
2023/08/24 05:32:04;;;;;;;6.13;4.03;;;18.70;99.90;;;;;;5024792;28;20217;-64
2023/08/24 05:34:29;;;;;;;11.53;4.30;;;18.70;99.90;;;;;;5022297;28;20180;-64
2023/08/24 05:36:55;;;;;;;7.73;3.93;;;18.60;99.90;;;;;;5019966;28;20424;-64
2023/08/24 05:39:20;;;;;;;7.70;3.90;;;18.60;99.90;;;;;;5030943;28;20217;-64
2023/08/24 05:41:50;;;;;;;5.87;4.03;;;18.70;99.90;;;;;;5031018;28;20573;-64
2023/08/24 05:44:16;;;;;;;13.23;6.23;;;18.70;99.90;;;;;;5030894;28;20244;-64
2023/08/24 05:46:42;;;;;;;7.67;3.70;;;18.70;99.90;;;;;;5030770;28;20464;-64
2023/08/24 05:49:08;;;;;;;13.57;5.37;;;18.80;99.90;;;;;;5026116;28;20980;-64
2023/08/24 05:51:33;;;;;;;7.47;4.43;;;18.90;99.90;;;;;;5031534;28;20265;-64
2023/08/24 05:54:00;;;;;;;5.77;3.93;;;19.00;99.90;;;;;;5015065;28;20275;-64
2023/08/24 05:56:25;;;;;;;9.90;4.93;;;19.00;99.90;;;;;;5009388;28;20282;-64
2023/08/24 05:58:51;;;;;;;10.20;4.77;;;19.20;99.90;;;;;;5008175;28;20520;-64
2023/08/24 06:01:17;;;;;;;13.03;5.53;;;19.20;99.90;;;;;;5010996;28;20257;-64
2023/08/24 06:03:43;;;;;;;7.73;4.20;;;19.20;99.90;;;;;;5014700;28;20270;-64
2023/08/24 06:06:09;;;;;;;6.27;4.60;;;19.20;99.90;;;;;;5009325;28;20179;-64
2023/08/24 06:08:35;;;;;;;7.53;4.53;;;19.30;99.90;;;;;;5006874;28;20453;-64
2023/08/24 06:11:01;;;;;;;13.97;4.23;;;19.30;99.90;;;;;;5018897;28;20479;-64
2023/08/24 06:13:27;;;;;;;6.60;3.50;;;19.30;99.90;;;;;;5030548;28;20441;-64
2023/08/24 06:15:54;;;;;;;10.23;4.50;;;19.40;99.90;;;;;;5030027;28;20733;-64
2023/08/24 06:18:20;;;;;;;7.33;4.40;;;19.30;99.90;;;;;;5016912;28;20270;-64
2023/08/24 06:20:45;;;;;;;7.17;4.30;;;19.40;99.90;;;;;;5019566;28;20603;-64
2023/08/24 06:23:13;;;;;;;14.10;4.50;;;19.40;99.90;;;;;;5030045;28;20217;-64
2023/08/24 06:25:38;;;;;;;7.37;4.70;;;19.50;99.90;;;;;;5024803;28;20567;-64
2023/08/24 06:28:04;;;;;;;14.87;4.20;;;19.50;99.90;;;;;;5010417;28;20433;-64
2023/08/24 06:30:36;;;;;;;7.97;4.50;;;19.50;99.90;;;;;;5011605;28;20233;-64
2023/08/24 06:33:03;;;;;;;5.60;3.73;;;19.60;99.90;;;;;;5030470;28;20898;-64
2023/08/24 06:35:29;;;;;;;7.93;5.17;;;19.70;99.90;;;;;;5021782;28;20817;-64
2023/08/24 06:37:54;;;;;;;10.20;4.57;;;19.80;99.90;;;;;;5030242;28;20453;-64
2023/08/24 06:40:20;;;;;;;9.33;4.13;;;19.80;99.90;;;;;;5030230;28;20182;-64
2023/08/24 06:42:46;;;;;;;8.77;4.40;;;19.90;99.90;;;;;;5030048;28;20232;-64
2023/08/24 06:45:12;;;;;;;8.10;4.63;;;19.90;99.90;;;;;;5029986;28;20198;-64
2023/08/24 06:47:38;;;;;;;11.70;4.60;;;19.90;99.90;;;;;;5028968;28;20191;-64
2023/08/24 06:50:05;;;;;;;8.80;4.23;;;19.80;99.90;;;;;;5018485;28;20241;-64
2023/08/24 06:52:30;;;;;;;5.77;4.30;;;19.70;99.90;;;;;;5030004;28;20516;-64
2023/08/24 06:54:56;;;;;;;4.60;3.73;;;19.80;99.90;;;;;;5021452;28;20557;-64
2023/08/24 06:57:22;;;;;;;6.30;3.77;;;19.90;99.90;;;;;;5023668;28;20182;-64
2023/08/24 06:59:48;;;;;;;6.67;4.00;;;19.90;99.90;;;;;;5019634;28;20238;-64
2023/08/24 07:02:13;;;;;;;15.43;4.60;;;19.90;99.90;;;;;;5026749;28;20235;-64
2023/08/24 07:04:40;;;;;;;7.50;4.60;;;19.90;99.90;;;;;;5019044;28;20601;-64
2023/08/24 07:07:06;;;;;;;8.87;4.00;;;19.90;99.90;;;;;;5020147;28;20194;-65
2023/08/24 07:09:32;;;;;;;11.47;5.07;;;19.90;99.90;;;;;;5010028;28;20472;-64
2023/08/24 07:11:58;;;;;;;14.13;4.70;;;20.00;99.90;;;;;;5029239;28;20429;-64
2023/08/24 07:14:23;;;;;;;7.37;4.47;;;20.10;99.90;;;;;;5033943;28;20190;-64
2023/08/24 07:16:49;;;;;;;5.47;3.83;;;20.10;99.90;;;;;;5033178;28;20206;-64
2023/08/24 07:19:15;;;;;;;24.87;3.80;;;20.10;99.90;;;;;;5029833;28;20200;-64
2023/08/24 07:21:40;;;;;;;11.40;4.43;;;20.30;99.90;;;;;;5033686;28;20191;-64
2023/08/24 07:24:06;;;;;;;11.43;4.70;;;20.40;99.90;;;;;;5033925;28;20190;-64
2023/08/24 07:26:33;;;;;;;6.93;3.93;;;20.80;99.90;;;;;;5020942;28;20727;-65
2023/08/24 07:28:59;;;;;;;5.83;3.30;;;21.60;99.90;;;;;;5020808;28;20213;-64
2023/08/24 07:31:25;;;;;;;12.40;4.40;;;22.20;99.90;;;;;;5029248;28;20437;-65
2023/08/24 07:33:51;;;;;;;6.97;2.90;;;23.10;99.90;;;;;;5029954;28;20429;-65
2023/08/24 07:36:16;;;;;;;9.87;4.87;;;23.60;99.90;;;;;;5029930;28;20182;-65
2023/08/24 07:38:42;;;;;;;4.93;3.40;;;23.30;99.90;;;;;;5034099;28;20523;-65
2023/08/24 07:41:09;;;;;;;7.27;3.70;;;23.60;99.90;;;;;;5033310;28;20257;-65
2023/08/24 07:43:35;;;;;;;11.80;2.70;;;24.40;99.90;;;;;;5023911;28;20178;-65
2023/08/24 07:46:00;;;;;;;11.17;3.60;;;24.80;99.90;;;;;;5016633;28;20562;-65
2023/08/24 07:48:26;;;;;;;11.43;4.00;;;25.50;99.00;;;;;;5026811;28;20261;-65
2023/08/24 07:50:51;;;;;;;13.13;3.37;;;26.30;97.80;;;;;;5029829;28;20214;-65
2023/08/24 07:53:17;;;;;;;7.37;3.83;;;26.50;96.80;;;;;;5033104;28;20186;-65
2023/08/24 07:55:43;;;;;;;8.67;3.43;;;26.70;96.50;;;;;;5033058;28;20186;-65
2023/08/24 07:58:09;;;;;;;14.70;2.87;;;26.70;96.20;;;;;;5033505;28;20250;-65
2023/08/24 08:00:34;;;;;;;5.43;3.50;;;27.20;95.90;;;;;;5032687;28;20556;-65
2023/08/24 08:03:00;;;;;;;10.80;3.63;;;27.90;94.40;;;;;;5032626;28;20323;-65
2023/08/24 08:05:26;;;;;;;5.47;3.07;;;27.70;94.40;;;;;;5032813;28;20193;-65
2023/08/24 08:07:52;;;;;;;5.60;2.70;;;27.70;94.00;;;;;;5017249;28;20251;-65
2023/08/24 08:10:20;;;;;;;4.53;2.80;;;27.50;94.10;;;;;;5013037;28;20221;-65
2023/08/24 08:12:45;;;;;;;3.47;2.30;;;27.70;94.10;;;;;;5022698;28;20654;-65
2023/08/24 08:15:11;;;;;;;4.95;2.60;;;28.10;94.80;;;;;;5032596;28;20276;-65
2023/08/24 08:17:37;;;;;;;5.25;2.60;;;28.70;94.20;;;;;;5032185;28;20759;-65
2023/08/24 08:20:03;;;;;;;4.63;2.80;;;29.20;92.70;;;;;;5029207;28;20186;-65
2023/08/24 08:22:29;;;;;;;5.10;3.03;;;29.30;91.80;;;;;;5032470;28;20186;-65
2023/08/24 08:24:56;;;;;;;15.70;3.38;;;29.80;91.10;;;;;;5032499;28;20732;-65
2023/08/24 08:27:22;;;;;;;6.20;3.35;;;29.90;91.20;;;;;;5012930;28;20218;-65
2023/08/24 08:29:48;;;;;;;5.13;2.83;;;29.70;92.50;;;;;;5019834;28;20312;-65
2023/08/24 08:32:14;;;;;;;6.78;2.50;;;29.70;91.40;;;;;;5027375;28;20563;-65
2023/08/24 08:34:39;;;;;;;5.50;3.35;;;30.20;91.20;;;;;;5024841;28;20642;-65
2023/08/24 08:37:05;;;;;;;5.10;3.13;;;30.70;90.20;;;;;;5023426;28;20245;-65
2023/08/24 08:39:32;;;;;;;11.13;3.22;;;30.80;87.70;;;;;;5025378;28;20190;-65
2023/08/24 08:41:58;;;;;;;5.00;2.50;;;30.20;90.20;;;;;;5022197;28;20185;-65
2023/08/24 08:44:25;;;;;;;6.38;2.88;;;30.40;90.70;;;;;;5032137;28;20265;-65
2023/08/24 08:46:51;;;;;;;4.00;2.45;;;30.60;90.20;;;;;;5031704;28;20205;-66
2023/08/24 08:49:19;;;;;;;6.60;2.92;;;30.30;90.60;;;;;;5032168;28;20221;-65
2023/08/24 08:51:45;;;;;;;6.90;3.33;;;30.50;88.30;;;;;;5032332;28;20174;-66
2023/08/24 08:54:11;;;;;;;8.70;2.70;;;31.30;87.40;;;;;;5018737;28;20555;-65
2023/08/24 08:56:37;;;;;;;5.55;3.20;;;31.60;86.20;;;;;;5032104;28;20178;-65
2023/08/24 08:59:07;;;;;;;4.35;3.10;;;31.10;87.10;;;;;;5032125;28;20684;-65
2023/08/24 09:01:32;;;;;;;5.53;3.40;;;31.20;87.30;;;;;;5031455;28;20194;-66
2023/08/24 09:03:59;;;;;;;11.00;2.75;;;31.20;88.40;;;;;;5031391;28;20549;-66
2023/08/24 09:06:24;;;;;;;5.32;3.05;;;31.60;88.10;;;;;;5028415;28;20178;-66
2023/08/24 09:08:50;;;;;;;9.85;2.85;;;31.20;86.60;;;;;;5014457;28;20716;-66
2023/08/24 09:11:18;;;;;;;3.55;2.42;;;31.30;87.40;;;;;;5023028;28;20237;-63
2023/08/24 09:13:46;;;;;;;3.88;2.38;;;31.80;86.60;;;;;;5027214;28;20228;-63
2023/08/24 09:16:15;;;;;;;6.25;3.05;;;31.60;86.40;;;;;;5022351;28;20593;-63
2023/08/24 09:18:45;;;;;;;5.60;2.78;;;31.30;86.60;;;;;;5031617;28;20177;-63
2023/08/24 09:21:12;;;;;;;6.35;3.47;;;31.60;85.50;;;;;;5020417;28;20245;-63
2023/08/24 09:23:45;;;;;;;8.20;3.78;;;31.40;85.70;;;;;;5024981;28;20191;-64
2023/08/24 09:26:10;;;;;;;8.18;3.53;;;31.60;86.50;;;;;;5011896;28;20198;-63
2023/08/24 09:28:38;;;;;;;5.28;2.55;;;31.80;85.60;;;;;;5017742;28;20189;-63
2023/08/24 09:31:04;;;;;;;6.70;3.50;;;31.70;85.50;;;;;;5024341;28;20634;-63
2023/08/24 09:33:30;;;;;;;6.00;2.50;;;31.50;86.50;;;;;;5023958;28;20189;-63
2023/08/24 09:36:01;;;;;;;4.68;2.90;;;31.70;86.60;;;;;;5024489;28;20270;-64
2023/08/24 09:38:27;;;;;;;11.55;3.53;;;31.80;85.20;;;;;;4998781;28;20178;-64
2023/08/24 09:40:55;;;;;;;4.55;3.17;;;31.50;87.80;;;;;;5011446;28;20189;-64
2023/08/24 09:43:22;;;;;;;10.13;3.45;;;30.70;89.90;;;;;;5030932;28;20224;-64
2023/08/24 09:45:55;;;;;;;6.28;3.63;;;31.10;90.10;;;;;;5016906;28;20611;-64
2023/08/24 09:48:21;;;;;;;3.40;2.38;;;31.40;89.50;;;;;;5015034;28;20182;-64
2023/08/24 09:50:51;;;;;;;7.82;3.75;;;31.50;88.90;;;;;;5024548;28;20197;-64
2023/08/24 09:53:18;;;;;;;4.35;2.90;;;31.90;87.40;;;;;;5011189;28;20210;-64
2023/08/24 09:56:01;;;;;;;4.88;3.30;;;31.30;88.80;;;;;;5024586;28;20182;-64
2023/08/24 09:58:27;;;;;;;12.55;3.38;;;32.10;87.70;;;;;;5022518;28;20201;-64
2023/08/24 10:00:54;;;;;;;6.20;2.70;;;31.70;87.90;;;;;;5030134;28;20287;-64
2023/08/24 10:03:23;;;;;;;9.10;4.07;;;31.40;88.70;;;;;;5008579;28;20190;-64
2023/08/24 10:05:53;;;;;;;5.57;3.33;;;30.50;90.10;;;;;;5015391;28;20189;-63
2023/08/24 10:08:22;;;;;;;3.92;2.50;;;30.50;91.40;;;;;;5011320;28;20688;-63
2023/08/24 10:10:52;;;;;;;6.57;3.35;;;30.50;90.70;;;;;;5020065;28;20224;-63
2023/08/24 10:13:31;;;;;;;6.30;3.05;;;30.50;90.70;;;;;;5016070;28;20278;-63
2023/08/24 10:15:59;;;;;;;6.43;3.60;;;30.20;91.40;;;;;;5030390;28;20265;-63
2023/08/24 10:18:26;;;;;;;5.78;3.15;;;29.70;91.40;;;;;;5028724;28;20190;-63
2023/08/24 10:20:52;;;;;;;7.47;3.33;;;29.80;92.10;;;;;;5030630;28;20536;-63
2023/08/24 10:23:19;;;;;;;9.02;3.83;;;29.50;92.50;;;;;;5030419;28;20590;-63
2023/08/24 10:25:46;;;;;;;7.78;3.45;;;29.80;92.40;;;;;;5024322;28;20568;-63
2023/08/24 10:28:14;;;;;;;7.90;3.10;;;29.80;92.50;;;;;;5012604;28;20237;-63
2023/08/24 10:30:43;;;;;;;5.85;3.47;;;29.90;92.20;;;;;;5022201;28;20202;-64
2023/08/24 10:33:11;;;;;;;4.22;3.00;;;29.80;92.10;;;;;;5028559;28;20576;-63
2023/08/24 10:35:37;;;;;;;5.32;3.20;;;29.60;92.40;;;;;;5021245;28;20178;-63
2023/08/24 10:38:05;;;;;;;6.75;3.17;;;29.80;92.30;;;;;;5030341;28;20692;-63
2023/08/24 10:40:35;;;;;;;5.43;3.50;;;29.80;92.40;;;;;;5029998;28;20602;-63
2023/08/24 10:43:07;;;;;;;5.93;3.10;;;29.80;92.20;;;;;;5016903;28;20190;-63
2023/08/24 10:46:02;;;;;;;10.45;4.10;;;30.30;91.80;;;;;;5029944;28;20316;-64
2023/08/24 10:48:47;;;;;;;5.63;3.30;;;30.30;92.70;;;;;;5026010;28;20206;-64
2023/08/24 10:51:22;;;;;;;5.15;3.63;;;29.70;93.50;;;;;;5026818;28;20194;-64
2023/08/24 10:53:55;;;;;;;8.35;3.75;;;29.80;92.60;;;;;;5029899;28;20178;-63
2023/08/24 10:56:21;;;;;;;6.55;3.75;;;30.00;92.20;;;;;;5029925;28;20206;-63
2023/08/24 10:59:07;;;;;;;5.97;3.67;;;29.90;92.10;;;;;;5030413;28;20638;-64
2023/08/24 11:01:32;;;;;;;4.40;3.08;;;30.10;92.30;;;;;;5002638;28;20206;-64
2023/08/24 11:03:58;;;;;;;16.77;4.68;;;30.40;92.10;;;;;;5024375;28;20257;-63
2023/08/24 11:06:25;;;;;;;6.13;3.33;;;30.50;92.50;;;;;;5026300;28;20182;-64
2023/08/24 11:09:07;;;;;;;5.72;3.38;;;30.50;91.70;;;;;;5012571;28;20209;-64
2023/08/24 11:11:32;;;;;;;9.55;4.18;;;30.80;91.60;;;;;;5021774;28;20186;-64
2023/08/24 11:14:17;;;;;;;9.35;3.00;;;30.80;91.40;;;;;;5029669;28;20516;-63
2023/08/24 11:16:44;;;;;;;16.08;4.55;;;31.10;91.10;;;;;;5029169;28;20195;-64
2023/08/24 11:19:12;;;;;;;20.88;4.25;;;31.20;90.70;;;;;;5028540;28;20236;-63
2023/08/24 11:21:45;;;;;;;5.35;3.10;;;31.20;91.60;;;;;;5016798;28;20610;-64
2023/08/24 11:24:17;;;;;;;12.63;4.03;;;31.30;91.50;;;;;;5029779;28;20238;-64
2023/08/24 11:26:44;;;;;;;10.55;4.57;;;31.50;90.80;;;;;;5015313;28;20515;-63
2023/08/24 11:29:10;;;;;;;5.70;3.20;;;31.60;91.20;;;;;;4999748;28;20556;-63
2023/08/24 11:31:36;;;;;;;6.30;3.05;;;31.60;90.40;;;;;;5022382;28;20175;-64
2023/08/24 11:34:04;;;;;;;8.10;3.58;;;31.70;90.50;;;;;;5015453;28;20206;-64
2023/08/24 11:36:41;;;;;;;5.18;3.40;;;31.40;90.30;;;;;;5027306;28;20193;-64
2023/08/24 11:39:06;;;;;;;8.00;3.80;;;31.40;91.70;;;;;;5030050;28;20249;-64
2023/08/24 11:41:32;;;;;;;6.15;3.50;;;31.40;92.00;;;;;;5029541;28;20224;-63
2023/08/24 11:44:00;;;;;;;9.80;4.22;;;31.30;90.80;;;;;;5029645;28;20201;-64
2023/08/24 11:46:29;;;;;;;6.40;3.97;;;31.50;91.00;;;;;;5029120;28;20277;-64
2023/08/24 11:48:54;;;;;;;7.18;2.90;;;31.70;90.30;;;;;;5020139;28;20187;-64
2023/08/24 11:51:20;;;;;;;5.55;3.58;;;31.90;90.50;;;;;;5005981;28;20584;-64
2023/08/24 11:53:46;;;;;;;6.72;3.50;;;32.00;91.00;;;;;;5007587;28;20616;-64
2023/08/24 11:56:13;;;;;;;12.20;4.20;;;32.30;90.10;;;;;;5013626;28;20179;-64
2023/08/24 11:58:43;;;;;;;11.52;3.22;;;32.60;89.80;;;;;;5026748;28;20223;-63
2023/08/24 12:01:10;;;;;;;13.27;4.00;;;32.70;88.70;;;;;;4998746;28;20201;-63
2023/08/24 12:03:37;;;;;;;9.15;3.67;;;32.70;89.10;;;;;;5010223;28;20540;-64
2023/08/24 12:06:09;;;;;;;7.80;3.60;;;33.00;90.00;;;;;;5011897;28;20250;-64
2023/08/24 12:08:41;;;;;;;4.32;3.08;;;33.20;89.60;;;;;;5005840;28;20206;-64
2023/08/24 12:11:14;;;;;;;11.27;3.13;;;33.70;86.30;;;;;;5013292;28;20175;-64
2023/08/24 12:13:44;;;;;;;6.30;3.67;;;33.50;86.10;;;;;;5013170;28;20226;-64
2023/08/24 12:16:11;;;;;;;13.32;4.50;;;33.40;86.60;;;;;;5012535;28;20182;-64
2023/08/24 12:18:47;;;;;;;7.65;3.30;;;33.60;86.10;;;;;;5012421;28;20266;-64
2023/08/24 12:21:13;;;;;;;9.13;4.10;;;33.90;85.80;;;;;;5012977;28;20569;-64
2023/08/24 12:23:39;;;;;;;6.22;3.70;;;34.00;86.90;;;;;;5012706;28;20252;-64
2023/08/24 12:26:07;;;;;;;12.60;4.20;;;33.90;85.00;;;;;;5012854;28;20182;-64
2023/08/24 12:28:33;;;;;;;7.60;3.70;;;33.60;85.70;;;;;;5012981;28;20185;-63
2023/08/24 12:31:01;;;;;;;12.15;3.90;;;33.20;85.70;;;;;;4994314;28;20214;-63
2023/08/24 12:33:31;;;;;;;6.63;3.60;;;33.50;85.80;;;;;;5012563;28;20206;-64
2023/08/24 12:35:58;;;;;;;15.23;4.30;;;33.40;85.20;;;;;;5012688;28;20648;-64
2023/08/24 12:38:25;;;;;;;6.70;3.30;;;33.10;85.20;;;;;;5012196;28;20179;-64
2023/08/24 12:40:52;;;;;;;13.25;3.70;;;33.00;85.40;;;;;;5009329;28;20183;-63
2023/08/24 12:43:18;;;;;;;8.50;3.72;;;33.20;86.10;;;;;;5008106;28;20198;-64
2023/08/24 12:45:44;;;;;;;8.10;3.33;;;33.50;84.70;;;;;;5004786;28;20187;-64